sensor_id;sensor_type;location;lat;lon;timestamp;P1;durP1;ratioP1;P2;durP2;ratioP2
48987;SDS011;34799;51.440;-2.534;2023-02-04T00:00:17;4.45;;;0.75;;
48987;SDS011;34799;51.440;-2.534;2023-02-04T00:02:46;9.82;;;1.40;;
48987;SDS011;34799;51.440;-2.534;2023-02-04T00:05:13;8.60;;;1.42;;
48987;SDS011;34799;51.440;-2.534;2023-02-04T00:07:43;5.75;;;0.60;;
48987;SDS011;34799;51.440;-2.534;2023-02-04T00:10:10;7.10;;;0.60;;
48987;SDS011;34799;51.440;-2.534;2023-02-04T00:12:38;5.70;;;0.40;;
48987;SDS011;34799;51.440;-2.534;2023-02-04T00:15:05;6.88;;;0.60;;
48987;SDS011;34799;51.440;-2.534;2023-02-04T00:17:32;6.43;;;0.45;;
48987;SDS011;34799;51.440;-2.534;2023-02-04T00:19:59;5.38;;;0.45;;
48987;SDS011;34799;51.440;-2.534;2023-02-04T00:22:26;2.33;;;0.47;;
48987;SDS011;34799;51.440;-2.534;2023-02-04T00:24:55;3.25;;;0.38;;
48987;SDS011;34799;51.440;-2.534;2023-02-04T00:27:23;6.18;;;0.63;;
48987;SDS011;34799;51.440;-2.534;2023-02-04T00:29:50;1.85;;;0.20;;
48987;SDS011;34799;51.440;-2.534;2023-02-04T00:32:17;1.70;;;0.45;;
48987;SDS011;34799;51.440;-2.534;2023-02-04T00:34:45;6.00;;;0.30;;
48987;SDS011;34799;51.440;-2.534;2023-02-04T00:37:12;4.25;;;0.50;;
48987;SDS011;34799;51.440;-2.534;2023-02-04T00:39:40;3.75;;;0.70;;
48987;SDS011;34799;51.440;-2.534;2023-02-04T00:42:07;2.15;;;0.50;;
48987;SDS011;34799;51.440;-2.534;2023-02-04T00:44:35;6.55;;;0.55;;
48987;SDS011;34799;51.440;-2.534;2023-02-04T00:47:02;3.10;;;0.57;;
48987;SDS011;34799;51.440;-2.534;2023-02-04T00:49:30;4.40;;;0.40;;
48987;SDS011;34799;51.440;-2.534;2023-02-04T00:52:00;3.08;;;0.30;;
48987;SDS011;34799;51.440;-2.534;2023-02-04T00:54:27;2.33;;;0.30;;
48987;SDS011;34799;51.440;-2.534;2023-02-04T00:56:54;6.43;;;0.47;;
48987;SDS011;34799;51.440;-2.534;2023-02-04T00:59:21;3.35;;;0.40;;
48987;SDS011;34799;51.440;-2.534;2023-02-04T01:01:49;2.90;;;0.30;;
48987;SDS011;34799;51.440;-2.534;2023-02-04T01:04:17;5.35;;;0.40;;
48987;SDS011;34799;51.440;-2.534;2023-02-04T01:06:45;4.43;;;0.43;;
48987;SDS011;34799;51.440;-2.534;2023-02-04T01:09:12;1.77;;;0.30;;
48987;SDS011;34799;51.440;-2.534;2023-02-04T01:11:39;3.67;;;0.35;;
48987;SDS011;34799;51.440;-2.534;2023-02-04T01:14:06;5.57;;;0.60;;
48987;SDS011;34799;51.440;-2.534;2023-02-04T01:16:33;3.72;;;0.30;;
48987;SDS011;34799;51.440;-2.534;2023-02-04T01:19:01;2.67;;;0.50;;
48987;SDS011;34799;51.440;-2.534;2023-02-04T01:21:28;2.80;;;0.63;;
48987;SDS011;34799;51.440;-2.534;2023-02-04T01:23:55;2.55;;;0.20;;
48987;SDS011;34799;51.440;-2.534;2023-02-04T01:26:22;2.70;;;0.20;;
48987;SDS011;34799;51.440;-2.534;2023-02-04T01:28:50;5.43;;;0.30;;
48987;SDS011;34799;51.440;-2.534;2023-02-04T01:31:17;3.67;;;0.75;;
48987;SDS011;34799;51.440;-2.534;2023-02-04T01:33:47;2.33;;;0.28;;
48987;SDS011;34799;51.440;-2.534;2023-02-04T01:36:16;1.25;;;0.40;;
48987;SDS011;34799;51.440;-2.534;2023-02-04T01:38:47;3.42;;;0.32;;
48987;SDS011;34799;51.440;-2.534;2023-02-04T01:41:15;2.53;;;0.30;;
48987;SDS011;34799;51.440;-2.534;2023-02-04T01:43:47;4.13;;;0.25;;
48987;SDS011;34799;51.440;-2.534;2023-02-04T01:46:14;2.20;;;0.28;;
48987;SDS011;34799;51.440;-2.534;2023-02-04T01:48:42;3.75;;;0.50;;
48987;SDS011;34799;51.440;-2.534;2023-02-04T01:51:13;4.53;;;0.55;;
48987;SDS011;34799;51.440;-2.534;2023-02-04T01:53:42;1.33;;;0.22;;
48987;SDS011;34799;51.440;-2.534;2023-02-04T01:56:28;4.50;;;0.30;;
48987;SDS011;34799;51.440;-2.534;2023-02-04T01:58:57;2.92;;;0.20;;
48987;SDS011;34799;51.440;-2.534;2023-02-04T02:04:01;2.65;;;0.55;;
48987;SDS011;34799;51.440;-2.534;2023-02-04T02:06:28;2.03;;;0.32;;
48987;SDS011;34799;51.440;-2.534;2023-02-04T02:08:56;5.68;;;0.20;;
48987;SDS011;34799;51.440;-2.534;2023-02-04T02:11:24;6.03;;;0.35;;
48987;SDS011;34799;51.440;-2.534;2023-02-04T02:13:53;2.30;;;0.13;;
48987;SDS011;34799;51.440;-2.534;2023-02-04T02:16:20;3.15;;;0.20;;
48987;SDS011;34799;51.440;-2.534;2023-02-04T02:18:48;2.20;;;0.20;;
48987;SDS011;34799;51.440;-2.534;2023-02-04T02:21:17;2.95;;;0.50;;
48987;SDS011;34799;51.440;-2.534;2023-02-04T02:23:53;3.45;;;0.20;;
48987;SDS011;34799;51.440;-2.534;2023-02-04T02:26:26;3.67;;;0.40;;
48987;SDS011;34799;51.440;-2.534;2023-02-04T02:28:54;5.07;;;0.13;;
48987;SDS011;34799;51.440;-2.534;2023-02-04T02:31:22;4.55;;;0.20;;
48987;SDS011;34799;51.440;-2.534;2023-02-04T02:33:49;3.75;;;0.17;;
48987;SDS011;34799;51.440;-2.534;2023-02-04T02:36:16;4.15;;;0.20;;
48987;SDS011;34799;51.440;-2.534;2023-02-04T02:38:43;4.65;;;0.28;;
48987;SDS011;34799;51.440;-2.534;2023-02-04T02:41:10;4.43;;;0.20;;
48987;SDS011;34799;51.440;-2.534;2023-02-04T02:43:39;4.53;;;0.50;;
48987;SDS011;34799;51.440;-2.534;2023-02-04T02:46:06;1.08;;;0.20;;
48987;SDS011;34799;51.440;-2.534;2023-02-04T02:48:33;9.93;;;1.25;;
48987;SDS011;34799;51.440;-2.534;2023-02-04T02:51:00;3.45;;;0.20;;
48987;SDS011;34799;51.440;-2.534;2023-02-04T02:53:27;5.68;;;0.30;;
48987;SDS011;34799;51.440;-2.534;2023-02-04T02:55:54;4.18;;;0.20;;
48987;SDS011;34799;51.440;-2.534;2023-02-04T02:58:28;3.13;;;0.30;;
48987;SDS011;34799;51.440;-2.534;2023-02-04T03:00:59;3.97;;;0.20;;
48987;SDS011;34799;51.440;-2.534;2023-02-04T03:03:30;2.08;;;0.20;;
48987;SDS011;34799;51.440;-2.534;2023-02-04T03:06:04;4.82;;;0.32;;
48987;SDS011;34799;51.440;-2.534;2023-02-04T03:08:39;1.65;;;0.30;;
48987;SDS011;34799;51.440;-2.534;2023-02-04T03:11:09;4.13;;;0.77;;
48987;SDS011;34799;51.440;-2.534;2023-02-04T03:13:36;4.97;;;0.20;;
48987;SDS011;34799;51.440;-2.534;2023-02-04T03:16:04;2.22;;;0.25;;
48987;SDS011;34799;51.440;-2.534;2023-02-04T03:18:33;4.38;;;1.35;;
48987;SDS011;34799;51.440;-2.534;2023-02-04T03:21:03;3.35;;;0.10;;
48987;SDS011;34799;51.440;-2.534;2023-02-04T03:23:32;1.88;;;0.10;;
48987;SDS011;34799;51.440;-2.534;2023-02-04T03:26:02;4.28;;;0.20;;
48987;SDS011;34799;51.440;-2.534;2023-02-04T03:28:31;1.00;;;0.10;;
48987;SDS011;34799;51.440;-2.534;2023-02-04T03:30:58;9.95;;;0.20;;
48987;SDS011;34799;51.440;-2.534;2023-02-04T03:33:26;2.65;;;0.20;;
48987;SDS011;34799;51.440;-2.534;2023-02-04T03:35:57;6.90;;;0.35;;
48987;SDS011;34799;51.440;-2.534;2023-02-04T03:38:24;3.42;;;0.32;;
48987;SDS011;34799;51.440;-2.534;2023-02-04T03:40:52;6.90;;;0.52;;
48987;SDS011;34799;51.440;-2.534;2023-02-04T03:43:19;2.78;;;0.30;;
48987;SDS011;34799;51.440;-2.534;2023-02-04T03:45:47;7.68;;;0.95;;
48987;SDS011;34799;51.440;-2.534;2023-02-04T03:48:14;4.15;;;0.85;;
48987;SDS011;34799;51.440;-2.534;2023-02-04T03:50:41;5.70;;;1.20;;
48987;SDS011;34799;51.440;-2.534;2023-02-04T03:53:08;7.28;;;1.08;;
48987;SDS011;34799;51.440;-2.534;2023-02-04T03:55:35;8.25;;;1.30;;
48987;SDS011;34799;51.440;-2.534;2023-02-04T03:58:03;7.88;;;0.90;;
48987;SDS011;34799;51.440;-2.534;2023-02-04T04:00:31;8.27;;;1.70;;
48987;SDS011;34799;51.440;-2.534;2023-02-04T04:02:59;4.00;;;0.80;;
48987;SDS011;34799;51.440;-2.534;2023-02-04T04:05:26;4.65;;;0.75;;
48987;SDS011;34799;51.440;-2.534;2023-02-04T04:07:54;4.90;;;0.75;;
48987;SDS011;34799;51.440;-2.534;2023-02-04T04:10:21;4.88;;;0.70;;
48987;SDS011;34799;51.440;-2.534;2023-02-04T04:12:50;7.18;;;1.38;;
48987;SDS011;34799;51.440;-2.534;2023-02-04T04:15:17;3.50;;;0.60;;
48987;SDS011;34799;51.440;-2.534;2023-02-04T04:17:44;3.70;;;0.68;;
48987;SDS011;34799;51.440;-2.534;2023-02-04T04:20:11;3.60;;;0.65;;
48987;SDS011;34799;51.440;-2.534;2023-02-04T04:22:39;3.80;;;0.90;;
48987;SDS011;34799;51.440;-2.534;2023-02-04T04:25:06;7.20;;;0.70;;
48987;SDS011;34799;51.440;-2.534;2023-02-04T04:27:35;3.28;;;0.63;;
48987;SDS011;34799;51.440;-2.534;2023-02-04T04:30:02;4.82;;;1.10;;
48987;SDS011;34799;51.440;-2.534;2023-02-04T04:32:30;9.02;;;0.70;;
48987;SDS011;34799;51.440;-2.534;2023-02-04T04:34:56;9.30;;;1.60;;
48987;SDS011;34799;51.440;-2.534;2023-02-04T04:37:24;6.88;;;0.73;;
48987;SDS011;34799;51.440;-2.534;2023-02-04T04:39:51;5.72;;;0.85;;
48987;SDS011;34799;51.440;-2.534;2023-02-04T04:42:18;5.65;;;0.70;;
48987;SDS011;34799;51.440;-2.534;2023-02-04T04:44:45;8.30;;;0.60;;
48987;SDS011;34799;51.440;-2.534;2023-02-04T04:47:12;3.10;;;0.30;;
48987;SDS011;34799;51.440;-2.534;2023-02-04T04:49:39;5.80;;;0.40;;
48987;SDS011;34799;51.440;-2.534;2023-02-04T04:52:06;3.60;;;0.20;;
48987;SDS011;34799;51.440;-2.534;2023-02-04T04:54:33;3.70;;;0.70;;
48987;SDS011;34799;51.440;-2.534;2023-02-04T04:57:00;3.67;;;0.15;;
48987;SDS011;34799;51.440;-2.534;2023-02-04T04:59:28;3.72;;;0.10;;
48987;SDS011;34799;51.440;-2.534;2023-02-04T05:01:55;6.57;;;0.75;;
48987;SDS011;34799;51.440;-2.534;2023-02-04T05:04:23;5.20;;;0.20;;
48987;SDS011;34799;51.440;-2.534;2023-02-04T05:06:50;5.00;;;0.25;;
48987;SDS011;34799;51.440;-2.534;2023-02-04T05:09:17;3.88;;;0.35;;
48987;SDS011;34799;51.440;-2.534;2023-02-04T05:11:43;3.97;;;0.20;;
48987;SDS011;34799;51.440;-2.534;2023-02-04T05:14:10;5.65;;;0.70;;
48987;SDS011;34799;51.440;-2.534;2023-02-04T05:16:38;6.13;;;0.55;;
48987;SDS011;34799;51.440;-2.534;2023-02-04T05:19:06;5.70;;;0.82;;
48987;SDS011;34799;51.440;-2.534;2023-02-04T05:21:33;4.85;;;0.20;;
48987;SDS011;34799;51.440;-2.534;2023-02-04T05:24:00;9.60;;;0.40;;
48987;SDS011;34799;51.440;-2.534;2023-02-04T05:26:27;8.13;;;0.20;;
48987;SDS011;34799;51.440;-2.534;2023-02-04T05:28:57;3.92;;;0.32;;
48987;SDS011;34799;51.440;-2.534;2023-02-04T05:31:28;6.55;;;0.50;;
48987;SDS011;34799;51.440;-2.534;2023-02-04T05:33:55;5.40;;;0.20;;
48987;SDS011;34799;51.440;-2.534;2023-02-04T05:36:24;2.92;;;0.20;;
48987;SDS011;34799;51.440;-2.534;2023-02-04T05:38:51;4.13;;;0.28;;
48987;SDS011;34799;51.440;-2.534;2023-02-04T05:41:18;5.95;;;0.20;;
48987;SDS011;34799;51.440;-2.534;2023-02-04T05:43:45;2.15;;;0.30;;
48987;SDS011;34799;51.440;-2.534;2023-02-04T05:46:12;5.97;;;0.50;;
48987;SDS011;34799;51.440;-2.534;2023-02-04T05:48:39;4.10;;;0.70;;
48987;SDS011;34799;51.440;-2.534;2023-02-04T05:51:08;5.13;;;0.35;;
48987;SDS011;34799;51.440;-2.534;2023-02-04T05:53:35;4.95;;;0.20;;
48987;SDS011;34799;51.440;-2.534;2023-02-04T05:56:02;6.30;;;0.57;;
48987;SDS011;34799;51.440;-2.534;2023-02-04T05:58:29;5.20;;;0.50;;
48987;SDS011;34799;51.440;-2.534;2023-02-04T06:01:02;4.50;;;0.60;;
48987;SDS011;34799;51.440;-2.534;2023-02-04T06:03:30;2.92;;;0.30;;
48987;SDS011;34799;51.440;-2.534;2023-02-04T06:05:58;6.95;;;0.40;;
48987;SDS011;34799;51.440;-2.534;2023-02-04T06:08:25;5.15;;;0.25;;
48987;SDS011;34799;51.440;-2.534;2023-02-04T06:10:53;2.92;;;0.30;;
48987;SDS011;34799;51.440;-2.534;2023-02-04T06:13:20;4.50;;;0.40;;
48987;SDS011;34799;51.440;-2.534;2023-02-04T06:15:47;5.88;;;0.30;;
48987;SDS011;34799;51.440;-2.534;2023-02-04T06:18:14;5.82;;;0.75;;
48987;SDS011;34799;51.440;-2.534;2023-02-04T06:20:41;4.85;;;0.60;;
48987;SDS011;34799;51.440;-2.534;2023-02-04T06:23:08;7.05;;;0.90;;
48987;SDS011;34799;51.440;-2.534;2023-02-04T06:25:35;2.10;;;0.28;;
48987;SDS011;34799;51.440;-2.534;2023-02-04T06:28:03;6.38;;;0.95;;
48987;SDS011;34799;51.440;-2.534;2023-02-04T06:30:30;5.13;;;0.40;;
48987;SDS011;34799;51.440;-2.534;2023-02-04T06:32:58;2.67;;;0.50;;
48987;SDS011;34799;51.440;-2.534;2023-02-04T06:35:25;3.03;;;0.30;;
48987;SDS011;34799;51.440;-2.534;2023-02-04T06:37:52;5.65;;;0.30;;
48987;SDS011;34799;51.440;-2.534;2023-02-04T06:40:19;4.15;;;0.28;;
48987;SDS011;34799;51.440;-2.534;2023-02-04T06:42:47;7.50;;;0.60;;
48987;SDS011;34799;51.440;-2.534;2023-02-04T06:45:14;5.28;;;0.30;;
48987;SDS011;34799;51.440;-2.534;2023-02-04T06:47:41;2.22;;;0.30;;
48987;SDS011;34799;51.440;-2.534;2023-02-04T06:50:08;6.93;;;0.40;;
48987;SDS011;34799;51.440;-2.534;2023-02-04T06:52:36;3.50;;;0.40;;
48987;SDS011;34799;51.440;-2.534;2023-02-04T06:55:03;4.90;;;0.40;;
48987;SDS011;34799;51.440;-2.534;2023-02-04T06:57:31;4.85;;;0.80;;
48987;SDS011;34799;51.440;-2.534;2023-02-04T06:59:58;7.32;;;0.50;;
48987;SDS011;34799;51.440;-2.534;2023-02-04T07:02:25;2.75;;;0.35;;
48987;SDS011;34799;51.440;-2.534;2023-02-04T07:04:52;4.60;;;0.65;;
48987;SDS011;34799;51.440;-2.534;2023-02-04T07:07:19;5.18;;;0.32;;
48987;SDS011;34799;51.440;-2.534;2023-02-04T07:09:47;3.47;;;0.70;;
48987;SDS011;34799;51.440;-2.534;2023-02-04T07:12:13;8.82;;;0.68;;
48987;SDS011;34799;51.440;-2.534;2023-02-04T07:14:42;2.45;;;0.30;;
48987;SDS011;34799;51.440;-2.534;2023-02-04T07:17:09;3.20;;;0.50;;
48987;SDS011;34799;51.440;-2.534;2023-02-04T07:19:36;5.30;;;0.50;;
48987;SDS011;34799;51.440;-2.534;2023-02-04T07:22:04;8.40;;;0.40;;
48987;SDS011;34799;51.440;-2.534;2023-02-04T07:24:31;2.70;;;0.30;;
48987;SDS011;34799;51.440;-2.534;2023-02-04T07:26:58;3.50;;;0.75;;
48987;SDS011;34799;51.440;-2.534;2023-02-04T07:29:27;5.00;;;0.43;;
48987;SDS011;34799;51.440;-2.534;2023-02-04T07:31:54;3.50;;;0.60;;
48987;SDS011;34799;51.440;-2.534;2023-02-04T07:34:21;3.08;;;0.25;;
48987;SDS011;34799;51.440;-2.534;2023-02-04T07:36:48;5.35;;;0.50;;
48987;SDS011;34799;51.440;-2.534;2023-02-04T07:39:15;3.47;;;0.30;;
48987;SDS011;34799;51.440;-2.534;2023-02-04T07:41:44;8.93;;;1.02;;
48987;SDS011;34799;51.440;-2.534;2023-02-04T07:44:13;3.47;;;0.28;;
48987;SDS011;34799;51.440;-2.534;2023-02-04T07:46:40;3.97;;;0.20;;
48987;SDS011;34799;51.440;-2.534;2023-02-04T07:49:07;2.45;;;0.30;;
48987;SDS011;34799;51.440;-2.534;2023-02-04T07:51:34;4.80;;;0.40;;
48987;SDS011;34799;51.440;-2.534;2023-02-04T07:54:02;4.78;;;0.75;;
48987;SDS011;34799;51.440;-2.534;2023-02-04T07:56:29;6.22;;;0.30;;
48987;SDS011;34799;51.440;-2.534;2023-02-04T07:58:56;5.38;;;0.30;;
48987;SDS011;34799;51.440;-2.534;2023-02-04T08:01:24;6.30;;;0.50;;
48987;SDS011;34799;51.440;-2.534;2023-02-04T08:03:51;3.38;;;0.30;;
48987;SDS011;34799;51.440;-2.534;2023-02-04T08:06:18;3.35;;;0.30;;
48987;SDS011;34799;51.440;-2.534;2023-02-04T08:08:46;2.65;;;0.30;;
48987;SDS011;34799;51.440;-2.534;2023-02-04T08:11:14;8.52;;;0.70;;
48987;SDS011;34799;51.440;-2.534;2023-02-04T08:13:41;3.45;;;0.30;;
48987;SDS011;34799;51.440;-2.534;2023-02-04T08:16:08;7.05;;;0.35;;
48987;SDS011;34799;51.440;-2.534;2023-02-04T08:18:37;6.63;;;0.80;;
48987;SDS011;34799;51.440;-2.534;2023-02-04T08:21:05;9.27;;;0.60;;
48987;SDS011;34799;51.440;-2.534;2023-02-04T08:23:32;4.03;;;0.35;;
48987;SDS011;34799;51.440;-2.534;2023-02-04T08:25:59;2.42;;;0.60;;
48987;SDS011;34799;51.440;-2.534;2023-02-04T08:28:26;5.38;;;0.80;;
48987;SDS011;34799;51.440;-2.534;2023-02-04T08:30:54;3.30;;;0.30;;
48987;SDS011;34799;51.440;-2.534;2023-02-04T08:33:22;5.00;;;0.45;;
48987;SDS011;34799;51.440;-2.534;2023-02-04T08:35:50;5.55;;;0.30;;
48987;SDS011;34799;51.440;-2.534;2023-02-04T08:38:17;6.70;;;0.98;;
48987;SDS011;34799;51.440;-2.534;2023-02-04T08:40:44;5.55;;;0.50;;
48987;SDS011;34799;51.440;-2.534;2023-02-04T08:43:11;4.35;;;0.30;;
48987;SDS011;34799;51.440;-2.534;2023-02-04T08:45:38;4.70;;;0.40;;
48987;SDS011;34799;51.440;-2.534;2023-02-04T08:48:07;4.85;;;0.45;;
48987;SDS011;34799;51.440;-2.534;2023-02-04T08:50:35;6.55;;;0.35;;
48987;SDS011;34799;51.440;-2.534;2023-02-04T08:53:04;2.70;;;0.20;;
48987;SDS011;34799;51.440;-2.534;2023-02-04T08:55:31;7.18;;;0.43;;
48987;SDS011;34799;51.440;-2.534;2023-02-04T08:57:58;5.13;;;0.45;;
48987;SDS011;34799;51.440;-2.534;2023-02-04T09:00:26;5.70;;;0.40;;
48987;SDS011;34799;51.440;-2.534;2023-02-04T09:02:54;7.13;;;1.23;;
48987;SDS011;34799;51.440;-2.534;2023-02-04T09:05:21;4.28;;;0.35;;
48987;SDS011;34799;51.440;-2.534;2023-02-04T09:07:48;5.07;;;0.40;;
48987;SDS011;34799;51.440;-2.534;2023-02-04T09:10:15;7.47;;;0.90;;
48987;SDS011;34799;51.440;-2.534;2023-02-04T09:12:44;6.03;;;0.68;;
48987;SDS011;34799;51.440;-2.534;2023-02-04T09:15:11;2.83;;;0.40;;
48987;SDS011;34799;51.440;-2.534;2023-02-04T09:17:38;10.35;;;1.15;;
48987;SDS011;34799;51.440;-2.534;2023-02-04T09:20:06;3.70;;;0.45;;
48987;SDS011;34799;51.440;-2.534;2023-02-04T09:22:33;5.07;;;0.50;;
48987;SDS011;34799;51.440;-2.534;2023-02-04T09:25:02;5.35;;;0.47;;
48987;SDS011;34799;51.440;-2.534;2023-02-04T09:27:29;5.55;;;1.23;;
48987;SDS011;34799;51.440;-2.534;2023-02-04T09:29:57;5.90;;;0.52;;
48987;SDS011;34799;51.440;-2.534;2023-02-04T09:32:24;5.88;;;0.82;;
48987;SDS011;34799;51.440;-2.534;2023-02-04T09:34:51;2.30;;;0.43;;
48987;SDS011;34799;51.440;-2.534;2023-02-04T09:37:18;5.63;;;0.63;;
48987;SDS011;34799;51.440;-2.534;2023-02-04T09:39:46;6.32;;;0.85;;
48987;SDS011;34799;51.440;-2.534;2023-02-04T09:42:14;3.20;;;0.50;;
48987;SDS011;34799;51.440;-2.534;2023-02-04T09:44:42;4.40;;;0.70;;
48987;SDS011;34799;51.440;-2.534;2023-02-04T09:47:10;5.25;;;0.47;;
48987;SDS011;34799;51.440;-2.534;2023-02-04T09:49:42;6.93;;;0.70;;
48987;SDS011;34799;51.440;-2.534;2023-02-04T09:52:12;7.68;;;1.00;;
48987;SDS011;34799;51.440;-2.534;2023-02-04T09:54:43;4.47;;;0.70;;
48987;SDS011;34799;51.440;-2.534;2023-02-04T09:57:17;8.35;;;0.95;;
48987;SDS011;34799;51.440;-2.534;2023-02-04T09:59:45;2.67;;;0.50;;
48987;SDS011;34799;51.440;-2.534;2023-02-04T10:02:23;2.70;;;0.20;;
48987;SDS011;34799;51.440;-2.534;2023-02-04T10:04:53;3.55;;;0.50;;
48987;SDS011;34799;51.440;-2.534;2023-02-04T10:07:23;2.60;;;0.30;;
48987;SDS011;34799;51.440;-2.534;2023-02-04T10:09:52;2.53;;;0.50;;
48987;SDS011;34799;51.440;-2.534;2023-02-04T10:12:20;7.30;;;0.40;;
48987;SDS011;34799;51.440;-2.534;2023-02-04T10:14:47;2.40;;;0.40;;
48987;SDS011;34799;51.440;-2.534;2023-02-04T10:17:17;5.50;;;0.93;;
48987;SDS011;34799;51.440;-2.534;2023-02-04T10:19:47;4.25;;;0.60;;
48987;SDS011;34799;51.440;-2.534;2023-02-04T10:22:16;3.08;;;0.40;;
48987;SDS011;34799;51.440;-2.534;2023-02-04T10:24:46;5.43;;;0.50;;
48987;SDS011;34799;51.440;-2.534;2023-02-04T10:27:13;2.38;;;0.30;;
48987;SDS011;34799;51.440;-2.534;2023-02-04T10:29:53;12.20;;;0.52;;
48987;SDS011;34799;51.440;-2.534;2023-02-04T10:32:29;2.35;;;0.47;;
48987;SDS011;34799;51.440;-2.534;2023-02-04T10:34:59;4.25;;;0.50;;
48987;SDS011;34799;51.440;-2.534;2023-02-04T10:37:27;4.85;;;0.40;;
48987;SDS011;34799;51.440;-2.534;2023-02-04T10:39:57;5.90;;;0.60;;
48987;SDS011;34799;51.440;-2.534;2023-02-04T10:42:25;3.45;;;0.30;;
48987;SDS011;34799;51.440;-2.534;2023-02-04T10:44:54;2.20;;;0.20;;
48987;SDS011;34799;51.440;-2.534;2023-02-04T10:47:22;4.38;;;0.22;;
48987;SDS011;34799;51.440;-2.534;2023-02-04T10:49:53;2.15;;;0.20;;
48987;SDS011;34799;51.440;-2.534;2023-02-04T10:52:23;4.63;;;0.30;;
48987;SDS011;34799;51.440;-2.534;2023-02-04T10:54:58;3.60;;;0.50;;
48987;SDS011;34799;51.440;-2.534;2023-02-04T10:57:26;6.82;;;0.80;;
48987;SDS011;34799;51.440;-2.534;2023-02-04T10:59:59;5.07;;;0.50;;
48987;SDS011;34799;51.440;-2.534;2023-02-04T11:05:09;3.67;;;0.50;;
48987;SDS011;34799;51.440;-2.534;2023-02-04T11:07:45;3.80;;;0.28;;
48987;SDS011;34799;51.440;-2.534;2023-02-04T11:10:15;2.13;;;0.20;;
48987;SDS011;34799;51.440;-2.534;2023-02-04T11:13:23;5.25;;;0.70;;
48987;SDS011;34799;51.440;-2.534;2023-02-04T11:15:47;5.32;;;0.50;;
48987;SDS011;34799;51.440;-2.534;2023-02-04T11:20:47;2.72;;;0.45;;
48987;SDS011;34799;51.440;-2.534;2023-02-04T11:23:28;7.15;;;0.47;;
48987;SDS011;34799;51.440;-2.534;2023-02-04T11:33:48;6.20;;;0.60;;
48987;SDS011;34799;51.440;-2.534;2023-02-04T11:36:16;3.55;;;0.30;;
48987;SDS011;34799;51.440;-2.534;2023-02-04T11:38:46;8.35;;;0.60;;
48987;SDS011;34799;51.440;-2.534;2023-02-04T11:41:26;5.07;;;0.60;;
48987;SDS011;34799;51.440;-2.534;2023-02-04T11:43:56;3.33;;;0.60;;
48987;SDS011;34799;51.440;-2.534;2023-02-04T11:46:26;2.78;;;0.40;;
48987;SDS011;34799;51.440;-2.534;2023-02-04T11:48:56;4.03;;;0.50;;
48987;SDS011;34799;51.440;-2.534;2023-02-04T11:51:29;3.90;;;0.52;;
48987;SDS011;34799;51.440;-2.534;2023-02-04T11:53:57;3.35;;;0.30;;
48987;SDS011;34799;51.440;-2.534;2023-02-04T11:56:27;3.28;;;0.40;;
48987;SDS011;34799;51.440;-2.534;2023-02-04T11:58:55;3.45;;;0.32;;
48987;SDS011;34799;51.440;-2.534;2023-02-04T12:01:29;4.68;;;1.02;;
48987;SDS011;34799;51.440;-2.534;2023-02-04T12:04:00;2.10;;;0.55;;
48987;SDS011;34799;51.440;-2.534;2023-02-04T12:06:30;1.92;;;0.55;;
48987;SDS011;34799;51.440;-2.534;2023-02-04T12:09:07;2.97;;;0.30;;
48987;SDS011;34799;51.440;-2.534;2023-02-04T12:11:50;4.63;;;0.65;;
48987;SDS011;34799;51.440;-2.534;2023-02-04T12:14:21;3.65;;;0.40;;
48987;SDS011;34799;51.440;-2.534;2023-02-04T12:17:16;3.15;;;0.43;;
48987;SDS011;34799;51.440;-2.534;2023-02-04T12:19:46;2.67;;;0.40;;
48987;SDS011;34799;51.440;-2.534;2023-02-04T12:22:13;3.28;;;0.28;;
48987;SDS011;34799;51.440;-2.534;2023-02-04T12:24:41;4.32;;;0.43;;
48987;SDS011;34799;51.440;-2.534;2023-02-04T12:27:09;1.73;;;0.30;;
48987;SDS011;34799;51.440;-2.534;2023-02-04T12:29:36;8.35;;;0.55;;
48987;SDS011;34799;51.440;-2.534;2023-02-04T12:32:03;5.45;;;0.45;;
48987;SDS011;34799;51.440;-2.534;2023-02-04T12:34:32;1.00;;;0.50;;
48987;SDS011;34799;51.440;-2.534;2023-02-04T12:36:59;5.68;;;0.57;;
48987;SDS011;34799;51.440;-2.534;2023-02-04T12:39:26;3.65;;;0.40;;
48987;SDS011;34799;51.440;-2.534;2023-02-04T12:41:54;3.72;;;0.50;;
48987;SDS011;34799;51.440;-2.534;2023-02-04T12:44:21;3.42;;;0.40;;
48987;SDS011;34799;51.440;-2.534;2023-02-04T12:46:49;6.10;;;0.45;;
48987;SDS011;34799;51.440;-2.534;2023-02-04T12:49:17;4.30;;;0.55;;
48987;SDS011;34799;51.440;-2.534;2023-02-04T12:51:44;3.95;;;0.50;;
48987;SDS011;34799;51.440;-2.534;2023-02-04T12:54:11;4.80;;;0.40;;
48987;SDS011;34799;51.440;-2.534;2023-02-04T12:56:38;5.00;;;0.88;;
48987;SDS011;34799;51.440;-2.534;2023-02-04T12:59:05;5.22;;;0.68;;
48987;SDS011;34799;51.440;-2.534;2023-02-04T13:01:31;4.80;;;0.30;;
48987;SDS011;34799;51.440;-2.534;2023-02-04T13:03:59;2.35;;;1.00;;
48987;SDS011;34799;51.440;-2.534;2023-02-04T13:06:26;2.25;;;0.60;;
48987;SDS011;34799;51.440;-2.534;2023-02-04T13:08:53;5.88;;;0.45;;
48987;SDS011;34799;51.440;-2.534;2023-02-04T13:11:21;3.30;;;0.57;;
48987;SDS011;34799;51.440;-2.534;2023-02-04T13:13:47;5.20;;;0.70;;
48987;SDS011;34799;51.440;-2.534;2023-02-04T13:16:14;8.13;;;0.65;;
48987;SDS011;34799;51.440;-2.534;2023-02-04T13:18:45;3.88;;;0.40;;
48987;SDS011;34799;51.440;-2.534;2023-02-04T13:21:12;4.63;;;0.47;;
48987;SDS011;34799;51.440;-2.534;2023-02-04T13:23:38;4.28;;;0.55;;
48987;SDS011;34799;51.440;-2.534;2023-02-04T13:26:05;5.55;;;0.60;;
48987;SDS011;34799;51.440;-2.534;2023-02-04T13:28:34;4.78;;;0.65;;
48987;SDS011;34799;51.440;-2.534;2023-02-04T13:31:02;11.02;;;0.85;;
48987;SDS011;34799;51.440;-2.534;2023-02-04T13:33:30;5.88;;;0.70;;
48987;SDS011;34799;51.440;-2.534;2023-02-04T13:35:57;4.53;;;0.77;;
48987;SDS011;34799;51.440;-2.534;2023-02-04T13:38:24;5.25;;;0.70;;
48987;SDS011;34799;51.440;-2.534;2023-02-04T13:40:52;8.60;;;1.00;;
48987;SDS011;34799;51.440;-2.534;2023-02-04T13:43:20;9.25;;;1.25;;
48987;SDS011;34799;51.440;-2.534;2023-02-04T13:45:49;6.60;;;1.08;;
48987;SDS011;34799;51.440;-2.534;2023-02-04T13:48:16;4.25;;;1.30;;
48987;SDS011;34799;51.440;-2.534;2023-02-04T13:50:44;11.38;;;1.02;;
48987;SDS011;34799;51.440;-2.534;2023-02-04T13:53:11;6.78;;;1.00;;
48987;SDS011;34799;51.440;-2.534;2023-02-04T13:55:39;11.13;;;1.73;;
48987;SDS011;34799;51.440;-2.534;2023-02-04T13:58:06;4.28;;;1.02;;
48987;SDS011;34799;51.440;-2.534;2023-02-04T14:00:33;7.43;;;0.98;;
48987;SDS011;34799;51.440;-2.534;2023-02-04T14:03:00;5.07;;;1.67;;
48987;SDS011;34799;51.440;-2.534;2023-02-04T14:05:27;7.50;;;1.40;;
48987;SDS011;34799;51.440;-2.534;2023-02-04T14:07:54;7.97;;;1.65;;
48987;SDS011;34799;51.440;-2.534;2023-02-04T14:10:23;7.75;;;1.65;;
48987;SDS011;34799;51.440;-2.534;2023-02-04T14:12:52;4.28;;;0.98;;
48987;SDS011;34799;51.440;-2.534;2023-02-04T14:15:19;6.90;;;1.50;;
48987;SDS011;34799;51.440;-2.534;2023-02-04T14:17:46;11.25;;;1.77;;
48987;SDS011;34799;51.440;-2.534;2023-02-04T14:20:13;7.15;;;1.35;;
48987;SDS011;34799;51.440;-2.534;2023-02-04T14:22:42;5.93;;;1.25;;
48987;SDS011;34799;51.440;-2.534;2023-02-04T14:25:09;9.02;;;1.50;;
48987;SDS011;34799;51.440;-2.534;2023-02-04T14:27:36;7.60;;;1.33;;
48987;SDS011;34799;51.440;-2.534;2023-02-04T14:30:14;4.57;;;1.13;;
48987;SDS011;34799;51.440;-2.534;2023-02-04T14:32:43;9.15;;;1.58;;
48987;SDS011;34799;51.440;-2.534;2023-02-04T14:35:11;9.40;;;1.95;;
48987;SDS011;34799;51.440;-2.534;2023-02-04T14:37:39;5.05;;;1.63;;
48987;SDS011;34799;51.440;-2.534;2023-02-04T14:40:07;9.40;;;1.67;;
48987;SDS011;34799;51.440;-2.534;2023-02-04T14:42:36;3.80;;;1.35;;
48987;SDS011;34799;51.440;-2.534;2023-02-04T14:45:04;10.15;;;1.80;;
48987;SDS011;34799;51.440;-2.534;2023-02-04T14:47:33;10.68;;;2.13;;
48987;SDS011;34799;51.440;-2.534;2023-02-04T14:50:01;7.50;;;1.80;;
48987;SDS011;34799;51.440;-2.534;2023-02-04T14:52:29;8.48;;;1.85;;
48987;SDS011;34799;51.440;-2.534;2023-02-04T14:54:56;4.57;;;1.10;;